Lena — 5BYF3 — position and weather

sailwx.info

Track history (hours):
 
Tides and Currents Weather Stations Pressure Air Temp Water Temp Dewpoint Dewpoint Depression Visibility Wind Speed Wind Dir Waves Ship Positions

Lena

Last reported at 2018-Feb-22 11:15 UTC. Time now 2018-Feb-22 20:27 UTC.
Position N 09°29' W 079°56'.

Length 130 m; draft 7.1 m.

Type: Cargo ship. MMSI: 210740000.

Date/timePositionNaut miles runAvg speedWind from/ knotsBaromVisibWave heightAir tempDewpointWater temp
2018-Feb-22 11:15N 09°29' W 079°56'416.1
2018-Feb-22 11:01N 09°26' W 079°54'5 9.9
2018-Feb-22 10:30N 09°21' W 079°53'0 0.1
2018-Feb-22 09:59N 09°21' W 079°53'0 0.0
2018-Feb-22 09:29N 09°21' W 079°53'0 0.0
2018-Feb-22 08:59N 09°21' W 079°53'0 0.0
2018-Feb-22 08:29N 09°21' W 079°53'0 0.0
2018-Feb-22 07:59N 09°21' W 079°53'0 0.0
2018-Feb-22 07:29N 09°21' W 079°53'0 0.0
2018-Feb-22 06:59N 09°21' W 079°53'0 0.0
2018-Feb-22 06:29N 09°21' W 079°53'0 0.0
2018-Feb-22 05:59N 09°21' W 079°53'0 0.0
2018-Feb-22 05:29N 09°21' W 079°53'0 0.0
2018-Feb-22 04:59N 09°21' W 079°53'0 0.0
2018-Feb-22 04:29N 09°21' W 079°53'0 0.0
2018-Feb-22 03:59N 09°21' W 079°53'0 0.0
2018-Feb-22 03:29N 09°21' W 079°53'0 0.0
2018-Feb-22 02:59N 09°21' W 079°53'0 0.0
2018-Feb-22 02:29N 09°21' W 079°53'0 0.0
2018-Feb-22 01:59N 09°21' W 079°53'0 0.0
2018-Feb-22 01:29N 09°21' W 079°53'0 0.0
2018-Feb-22 00:59N 09°21' W 079°53'0 0.0
2018-Feb-22 00:29N 09°21' W 079°53'0 0.0
2018-Feb-21 23:59N 09°21' W 079°53'0 0.0
2018-Feb-21 23:29N 09°21' W 079°53'0 0.0
2018-Feb-21 22:59N 09°21' W 079°53'1 1.5
2018-Feb-21 22:31N 09°22' W 079°53'3 6.0
2018-Feb-21 22:00N 09°25' W 079°53'2 3.1
2018-Feb-21 21:30N 09°26' W 079°52'0 0.1
2018-Feb-21 20:57N 09°26' W 079°52'0 0.1
2018-Feb-21 20:30N 09°26' W 079°52'0 0.0
2018-Feb-21 20:00N 09°26' W 079°52'0 0.0
2018-Feb-21 19:30N 09°26' W 079°52'0 0.0
2018-Feb-21 19:00N 09°26' W 079°52'0 0.0
2018-Feb-21 18:30N 09°26' W 079°52'0 0.0
2018-Feb-20 17:30N 09°26' W 079°52'0 0.0
2018-Feb-20 17:00N 09°26' W 079°52'0 0.0
2018-Feb-20 16:30N 09°26' W 079°52'0 0.0
2018-Feb-20 16:00N 09°26' W 079°52'0 0.0
2018-Feb-20 15:30N 09°26' W 079°52'0 0.0
2018-Feb-20 15:00N 09°26' W 079°52'0 0.0
2018-Feb-20 14:30N 09°26' W 079°52'0 0.0
2018-Feb-20 14:00N 09°26' W 079°52'0 0.0
2018-Feb-20 13:30N 09°26' W 079°52'0 0.0
2018-Feb-20 13:00N 09°26' W 079°52'0 0.0
2018-Feb-20 12:30N 09°26' W 079°52'0 0.0
2018-Feb-20 12:00N 09°26' W 079°52'0 0.0
2018-Feb-20 11:30N 09°26' W 079°52'0 0.1
2018-Feb-20 11:00N 09°26' W 079°52'0 0.1
2018-Feb-20 10:30N 09°26' W 079°52'0 0.0
2018-Feb-20 10:00N 09°26' W 079°52'0 0.0
2018-Feb-20 09:30N 09°26' W 079°52'0 0.0
2018-Feb-20 09:00N 09°26' W 079°52'0 0.0
2018-Feb-20 08:30N 09°26' W 079°52'0 0.0
2018-Feb-20 08:00N 09°26' W 079°52'0 0.0
2018-Feb-20 07:30N 09°26' W 079°52'0 0.0
2018-Feb-20 07:00N 09°26' W 079°52'0 0.0
2018-Feb-20 06:30N 09°26' W 079°52'0 0.0
2018-Feb-20 06:00N 09°26' W 079°52'0 0.0
2018-Feb-20 05:27N 09°26' W 079°52'0 0.0
2018-Feb-20 05:00N 09°26' W 079°52'0 0.0
2018-Feb-20 04:30N 09°26' W 079°52'0 0.0
2018-Feb-20 04:00N 09°26' W 079°52'0 0.0
2018-Feb-20 03:30N 09°26' W 079°52'0 0.0
2018-Feb-20 03:00N 09°26' W 079°52'0 0.0
2018-Feb-20 02:30N 09°26' W 079°52'0 0.0
2018-Feb-20 02:00N 09°26' W 079°52'0 0.0
2018-Feb-20 01:30N 09°26' W 079°52'0 0.1
2018-Feb-20 01:00N 09°26' W 079°52'0 0.1
2018-Feb-20 00:30N 09°26' W 079°52'0 0.0
2018-Feb-20 00:00N 09°26' W 079°52'0 0.0
2018-Feb-19 23:30N 09°26' W 079°52'0 0.0
2018-Feb-19 23:00N 09°26' W 079°52'0 0.1
2018-Feb-19 22:30N 09°26' W 079°52'0 0.1
2018-Feb-19 22:00N 09°26' W 079°52'0 0.2
2018-Feb-19 21:20N 09°26' W 079°52'2 5.5
2018-Feb-19 21:00N 09°25' W 079°53'3 6.2
2018-Feb-19 20:29N 09°22' W 079°53'0 0.0
2018-Feb-19 19:59N 09°22' W 079°53'0 0.0
2018-Feb-19 19:29N 09°22' W 079°53'0 0.0
2018-Feb-19 18:59N 09°22' W 079°53'0 0.0
2018-Feb-19 18:29N 09°22' W 079°53'0 0.0
2018-Feb-19 17:59N 09°22' W 079°53'0 0.0
2018-Feb-19 17:29N 09°22' W 079°53'0 0.0
2018-Feb-19 16:59N 09°22' W 079°53'0 0.0
2018-Feb-19 16:29N 09°22' W 079°53'0 0.0
2018-Feb-19 15:59N 09°22' W 079°53'0 0.0
2018-Feb-19 15:29N 09°22' W 079°53'0 0.0
2018-Feb-19 13:53N 09°22' W 079°53'0 0.0
2018-Feb-19 13:29N 09°22' W 079°53'0 0.0
2018-Feb-19 12:59N 09°22' W 079°53'0 0.0
2018-Feb-19 12:29N 09°22' W 079°53'0 0.0
2018-Feb-19 11:59N 09°22' W 079°53'0 0.0
2018-Feb-19 11:29N 09°22' W 079°53'0 0.0
2018-Feb-19 10:59N 09°22' W 079°53'0 0.1
2018-Feb-19 10:30N 09°22' W 079°53'2 4.1
2018-Feb-19 10:00N 09°24' W 079°54'1 1.9
2018-Feb-19 09:30N 09°24' W 079°54'1 1.8
2018-Feb-19 09:00N 09°25' W 079°55'2 3.8
2018-Feb-19 08:30N 09°23' W 079°55'611.7
2018-Feb-19 07:59N 09°17' W 079°55'1 1.8
2018-Feb-19 07:30N 09°16' W 079°55'0 0.5
2018-Feb-19 07:00N 09°16' W 079°55'0 0.6
2018-Feb-19 06:30N 09°16' W 079°55'2 4.5
2018-Feb-19 05:58N 09°13' W 079°55'  
Track history (hours):
 
Tides and Currents Weather Stations Pressure Air Temp Water Temp Dewpoint Dewpoint Depression Visibility Wind Speed Wind Dir Waves Ship Positions

Lena

Last reported at 2018-Feb-22 11:15 UTC. Time now 2018-Feb-22 20:27 UTC.
Position N 09°29' W 079°56'.

Length 130 m; draft 7.1 m.

Type: Cargo ship. MMSI: 210740000.

Date/timePositionNaut miles runAvg speedWind from/ knotsBaromVisibWave heightAir tempDewpointWater temp
2018-Feb-22 11:15N 09°29' W 079°56'416.1
2018-Feb-22 11:01N 09°26' W 079°54'5 9.9
2018-Feb-22 10:30N 09°21' W 079°53'0 0.1
2018-Feb-22 09:59N 09°21' W 079°53'0 0.0
2018-Feb-22 09:29N 09°21' W 079°53'0 0.0
2018-Feb-22 08:59N 09°21' W 079°53'0 0.0
2018-Feb-22 08:29N 09°21' W 079°53'0 0.0
2018-Feb-22 07:59N 09°21' W 079°53'0 0.0
2018-Feb-22 07:29N 09°21' W 079°53'0 0.0
2018-Feb-22 06:59N 09°21' W 079°53'0 0.0
2018-Feb-22 06:29N 09°21' W 079°53'0 0.0
2018-Feb-22 05:59N 09°21' W 079°53'0 0.0
2018-Feb-22 05:29N 09°21' W 079°53'0 0.0
2018-Feb-22 04:59N 09°21' W 079°53'0 0.0
2018-Feb-22 04:29N 09°21' W 079°53'0 0.0
2018-Feb-22 03:59N 09°21' W 079°53'0 0.0
2018-Feb-22 03:29N 09°21' W 079°53'0 0.0
2018-Feb-22 02:59N 09°21' W 079°53'0 0.0
2018-Feb-22 02:29N 09°21' W 079°53'0 0.0
2018-Feb-22 01:59N 09°21' W 079°53'0 0.0
2018-Feb-22 01:29N 09°21' W 079°53'0 0.0
2018-Feb-22 00:59N 09°21' W 079°53'0 0.0
2018-Feb-22 00:29N 09°21' W 079°53'0 0.0
2018-Feb-21 23:59N 09°21' W 079°53'0 0.0
2018-Feb-21 23:29N 09°21' W 079°53'0 0.0
2018-Feb-21 22:59N 09°21' W 079°53'1 1.5
2018-Feb-21 22:31N 09°22' W 079°53'3 6.0
2018-Feb-21 22:00N 09°25' W 079°53'2 3.1
2018-Feb-21 21:30N 09°26' W 079°52'0 0.1
2018-Feb-21 20:57N 09°26' W 079°52'0 0.1
2018-Feb-21 20:30N 09°26' W 079°52'0 0.0
2018-Feb-21 20:00N 09°26' W 079°52'0 0.0
2018-Feb-21 19:30N 09°26' W 079°52'0 0.0
2018-Feb-21 19:00N 09°26' W 079°52'0 0.0
2018-Feb-21 18:30N 09°26' W 079°52'0 0.0
2018-Feb-20 17:30N 09°26' W 079°52'0 0.0
2018-Feb-20 17:00N 09°26' W 079°52'0 0.0
2018-Feb-20 16:30N 09°26' W 079°52'0 0.0
2018-Feb-20 16:00N 09°26' W 079°52'0 0.0
2018-Feb-20 15:30N 09°26' W 079°52'0 0.0
2018-Feb-20 15:00N 09°26' W 079°52'0 0.0
2018-Feb-20 14:30N 09°26' W 079°52'0 0.0
2018-Feb-20 14:00N 09°26' W 079°52'0 0.0
2018-Feb-20 13:30N 09°26' W 079°52'0 0.0
2018-Feb-20 13:00N 09°26' W 079°52'0 0.0
2018-Feb-20 12:30N 09°26' W 079°52'0 0.0
2018-Feb-20 12:00N 09°26' W 079°52'0 0.0
2018-Feb-20 11:30N 09°26' W 079°52'0 0.1
2018-Feb-20 11:00N 09°26' W 079°52'0 0.1
2018-Feb-20 10:30N 09°26' W 079°52'0 0.0
2018-Feb-20 10:00N 09°26' W 079°52'0 0.0
2018-Feb-20 09:30N 09°26' W 079°52'0 0.0
2018-Feb-20 09:00N 09°26' W 079°52'0 0.0
2018-Feb-20 08:30N 09°26' W 079°52'0 0.0
2018-Feb-20 08:00N 09°26' W 079°52'0 0.0
2018-Feb-20 07:30N 09°26' W 079°52'0 0.0
2018-Feb-20 07:00N 09°26' W 079°52'0 0.0
2018-Feb-20 06:30N 09°26' W 079°52'0 0.0
2018-Feb-20 06:00N 09°26' W 079°52'0 0.0
2018-Feb-20 05:27N 09°26' W 079°52'0 0.0
2018-Feb-20 05:00N 09°26' W 079°52'0 0.0
2018-Feb-20 04:30N 09°26' W 079°52'0 0.0
2018-Feb-20 04:00N 09°26' W 079°52'0 0.0
2018-Feb-20 03:30N 09°26' W 079°52'0 0.0
2018-Feb-20 03:00N 09°26' W 079°52'0 0.0
2018-Feb-20 02:30N 09°26' W 079°52'0 0.0
2018-Feb-20 02:00N 09°26' W 079°52'0 0.0
2018-Feb-20 01:30N 09°26' W 079°52'0 0.1
2018-Feb-20 01:00N 09°26' W 079°52'0 0.1
2018-Feb-20 00:30N 09°26' W 079°52'0 0.0
2018-Feb-20 00:00N 09°26' W 079°52'0 0.0
2018-Feb-19 23:30N 09°26' W 079°52'0 0.0
2018-Feb-19 23:00N 09°26' W 079°52'0 0.1
2018-Feb-19 22:30N 09°26' W 079°52'0 0.1
2018-Feb-19 22:00N 09°26' W 079°52'0 0.2
2018-Feb-19 21:20N 09°26' W 079°52'2 5.5
2018-Feb-19 21:00N 09°25' W 079°53'3 6.2
2018-Feb-19 20:29N 09°22' W 079°53'0 0.0
2018-Feb-19 19:59N 09°22' W 079°53'0 0.0
2018-Feb-19 19:29N 09°22' W 079°53'0 0.0
2018-Feb-19 18:59N 09°22' W 079°53'0 0.0
2018-Feb-19 18:29N 09°22' W 079°53'0 0.0
2018-Feb-19 17:59N 09°22' W 079°53'0 0.0
2018-Feb-19 17:29N 09°22' W 079°53'0 0.0
2018-Feb-19 16:59N 09°22' W 079°53'0 0.0
2018-Feb-19 16:29N 09°22' W 079°53'0 0.0
2018-Feb-19 15:59N 09°22' W 079°53'0 0.0
2018-Feb-19 15:29N 09°22' W 079°53'0 0.0
2018-Feb-19 13:53N 09°22' W 079°53'0 0.0
2018-Feb-19 13:29N 09°22' W 079°53'0 0.0
2018-Feb-19 12:59N 09°22' W 079°53'0 0.0
2018-Feb-19 12:29N 09°22' W 079°53'0 0.0
2018-Feb-19 11:59N 09°22' W 079°53'0 0.0
2018-Feb-19 11:29N 09°22' W 079°53'0 0.0
2018-Feb-19 10:59N 09°22' W 079°53'0 0.1
2018-Feb-19 10:30N 09°22' W 079°53'2 4.1
2018-Feb-19 10:00N 09°24' W 079°54'1 1.9
2018-Feb-19 09:30N 09°24' W 079°54'1 1.8
2018-Feb-19 09:00N 09°25' W 079°55'2 3.8
2018-Feb-19 08:30N 09°23' W 079°55'611.7
2018-Feb-19 07:59N 09°17' W 079°55'1 1.8
2018-Feb-19 07:30N 09°16' W 079°55'0 0.5
2018-Feb-19 07:00N 09°16' W 079°55'0 0.6
2018-Feb-19 06:30N 09°16' W 079°55'2 4.5
2018-Feb-19 05:58N 09°13' W 079°55'  

Dump ship's entire track history